• Join FlightAware (Why Join?)
  • Login
  • US Flag 
04:27PM EDT


 

Airport Tracker/Info


-or-


 

Live Flight TrackerFlight Track Log ✈ N839CA ✈ 07-May-2013 ✈ KEWR - KBUF

Flight Track Log - Related Links

Times and Time Zones

All times are in EDT time to prevent confusion due to time zone crossing. See the N839CA flight status page for this flight to view local times or setup timezone preferences in your user account.

Time Position Orientation Groundspeed Altitude Reporting Facility
EDT Latitude Longitude Course Direction KTS MPH feet Rate Location/Type
04:29PM 40.6500 -74.1833 246° West 146 168 1,500  Level New York TRACON
04:30PM 40.6333 -74.2333 246° West 202 232 2,700 1,320 Climbing New York TRACON
04:31PM 40.6500 -74.3167 285° West 202 232 4,200 1,500 Climbing New York TRACON
04:32PM 40.6667 -74.3833 288° West 201 231 5,700 1,440 Climbing New York TRACON
04:33PM 40.7167 -74.3833 360° North 197 227 7,100 1,440 Climbing New York TRACON
04:34PM 40.7667 -74.3667 14° North 205 236 8,600 1,380 Climbing New York TRACON
04:35PM 40.8167 -74.3833 346° North 210 242 9,900 1,260 Climbing New York TRACON
04:36PM 40.8667 -74.4000 346° North 211 243 11,200 960 Climbing New York TRACON
04:38PM 40.9247 -74.4594 322° Northwest 210 242 12,000 360 Climbing New York Center
04:39PM 40.9792 -74.5200 320° Northwest 238 274 12,000  Level New York Center
04:40PM 41.0333 -74.5836 318° Northwest 275 316 12,000  Level New York Center
04:41PM 41.0958 -74.6503 321° Northwest 286 329 12,000  Level New York Center
04:42PM 41.1553 -74.7364 313° West 291 335 12,000  Level New York Center
04:43PM 41.1900 -74.8183 299° West 291 335 12,000 120 Level New York Center
04:44PM 41.2364 -74.9233 300° West 296 341 12,300 900 Climbing New York Center
04:45PM 41.2731 -75.0056 301° West 288 331 13,900 780 Climbing New York Center
04:46PM 41.3039 -75.0767 300° West 265 305 13,900 480 Level New York Center
04:47PM 41.3403 -75.1644 299° West 265 305 14,900 960 Climbing New York Center
04:48PM 41.3767 -75.2472 300° West 253 291 15,900 480 Climbing New York Center
04:49PM 41.4131 -75.3325 300° West 264 304 15,900  Level New York Center
04:50PM 41.4472 -75.4150 299° West 275 316 15,900  Level New York Center
04:51PM 41.4853 -75.5064 299° West 275 316 15,900  Level New York Center
04:52PM 41.5269 -75.6092 298° West 275 316 15,900  Level New York Center
04:53PM 41.5628 -75.7003 298° West 275 316 16,000  Climbing New York Center
04:54PM 41.6006 -75.7919 299° West 275 316 16,000  Level New York Center
04:55PM 41.6383 -75.8836 299° West 275 316 16,000  Level New York Center
04:56PM 41.6758 -75.9781 298° West 275 316 16,000  Level New York Center
04:57PM 41.7097 -76.0586 299° West 280 322 16,000  Level New York Center
04:58PM 41.7453 -76.1503 297° West 280 322 16,000  Level New York Center
04:59PM 41.7864 -76.2539 298° West 275 316 16,000  Level New York Center
05:00PM 41.8236 -76.3458 299° West 275 316 16,000  Level New York Center
05:01PM 41.8572 -76.4294 298° West 275 316 16,000  Level New York Center
05:02PM 41.8944 -76.5219 298° West 275 316 16,000  Level New York Center
05:03PM 41.9294 -76.6142 297° West 275 316 16,000  Level New York Center
05:04PM 41.9667 -76.7067 298° West 275 316 16,000  Level New York Center
05:05PM 42.0036 -76.7992 298° West 275 316 16,000  Level New York Center
05:06PM 42.0653 -76.9525 298° West 269 310 16,000  Level Cleveland Center
05:07PM 42.1017 -77.0456 298° West 275 316 16,000  Level Cleveland Center
05:08PM 42.1317 -77.1419 293° West 280 322 16,000  Level Cleveland Center
05:09PM 42.1636 -77.2383 294° West 280 322 16,000  Level Cleveland Center
05:10PM 42.1956 -77.3319 295° West 280 322 16,000  Level Cleveland Center
05:11PM 42.2272 -77.4283 294° West 280 322 16,000  Level Cleveland Center
05:12PM 42.2569 -77.5222 293° West 280 322 16,000 -120 Level Cleveland Center
05:13PM 42.2886 -77.6192 294° West 280 322 15,800 -540 Descending Cleveland Center
05:14PM 42.3203 -77.7186 293° West 280 322 15,000 -840 Descending Cleveland Center
05:15PM 42.3542 -77.8211 294° West 292 336 14,200 -840 Descending Cleveland Center
05:16PM 42.3878 -77.9236 294° West 292 336 13,400 -780 Descending Cleveland Center
05:17PM 42.4214 -78.0264 294° West 292 336 12,700 -840 Descending Cleveland Center
05:18PM 42.4528 -78.1292 293° West 292 336 11,800 -900 Descending Cleveland Center
05:19PM 42.4864 -78.2322 294° West 292 336 11,000 -1,020 Descending Cleveland Center
05:20PM 42.5400 -78.3147 311° West 287 330 9,800 -1,200 Descending Cleveland Center
05:21PM 42.5936 -78.3917 313° West 287 330 8,600 -1,200 Descending Cleveland Center
05:22PM 42.6450 -78.4689 312° West 282 325 7,500 -1,200 Descending Cleveland Center
05:23PM 42.6944 -78.5464 311° West 276 318 6,300 -1,260 Descending Cleveland Center
05:24PM 42.7478 -78.6239 313° West 271 312 5,000 -1,200 Descending Cleveland Center
05:25PM 42.8050 -78.6786 325° Northwest 257 296 3,900 -1,260 Descending Cleveland Center
05:26PM 42.8664 -78.7278 330° Northwest 257 296 2,500 -1,320 Descending Cleveland Center
05:27PM 42.9000 -78.7500 334° Northwest 206 237 1,800 -1,140 Descending Buffalo TRACON
05:28PM 42.9333 -78.7333 20° North 109 125 700 -1,140 Descending Buffalo TRACON